Terminal Aerodrome Forecast
Issued by NWS

Home | Current Version | Previous Version | Text Only | Print | Product List | Glossary On
Versions: 1 2 3 4 5 6 7 8 9 10 11 12 13 14 15 16 17 18 19 20 21 22
000
FTUS43 KJKL 212300 RRA
TAFSME
TAF
KSME 212341Z 2200/2224 22004KT P6SM SCT040 BKN080
     FM220700 VRB03KT 3SM BR SCT040
     FM221400 25008KT P6SM BKN040
     FM222000 24007KT P6SM VCTS SCT050CB=

USA.gov is the U.S. government's official web portal to all federal, state and local government web resources and services.